Time;durP1;ratioP1;P1;durP2;ratioP2;P2;SDS_P1;SDS_P2;PMS_P1;PMS_P2;Temp;Humidity;BMP_temperature;BMP_pressure;BME280_temperature;BME280_humidity;BME280_pressure;Samples;Min_cycle;Max_cycle;Signal;HPM_P1;HPM_P2
2021/03/08 00:00:35;;;;;;;8.27;3.50;;;;;;;0.80;83.22;100029.11;1679765;84;20963;-75
2021/03/08 00:03:02;;;;;;;6.75;3.45;;;;;;;0.77;83.69;100034.03;1682862;83;21643;-76
2021/03/08 00:05:28;;;;;;;7.65;4.15;;;;;;;0.78;83.90;100033.55;1686086;83;21730;-75
2021/03/08 00:07:54;;;;;;;6.80;3.47;;;;;;;0.81;83.81;100032.06;1683852;84;21111;-75
2021/03/08 00:10:20;;;;;;;7.73;3.60;;;;;;;0.83;83.83;100035.42;1681657;83;21020;-75
2021/03/08 00:12:47;;;;;;;7.97;3.90;;;;;;;0.84;83.26;100034.03;1681298;83;21208;-76
2021/03/08 00:15:14;;;;;;;7.42;3.67;;;;;;;0.70;83.07;100043.98;1686065;83;21280;-75
2021/03/08 00:17:40;;;;;;;8.25;3.47;;;;;;;0.65;83.39;100040.84;1684463;83;21209;-75
2021/03/08 00:20:08;;;;;;;8.23;3.60;;;;;;;0.55;83.95;100040.21;1682159;84;21171;-75
2021/03/08 00:22:34;;;;;;;8.10;3.85;;;;;;;0.53;83.99;100040.30;1680664;84;21784;-74
2021/03/08 00:25:00;;;;;;;11.00;4.15;;;;;;;0.60;83.84;100038.16;1682834;83;21721;-76
2021/03/08 00:27:26;;;;;;;9.27;3.80;;;;;;;0.49;84.15;100037.04;1679984;84;22469;-76
2021/03/08 00:29:51;;;;;;;9.90;4.50;;;;;;;0.53;84.01;100039.01;1680712;84;21161;-76
2021/03/08 00:32:21;;;;;;;8.63;4.10;;;;;;;0.46;84.34;100040.30;1680717;84;21227;-75
2021/03/08 00:34:47;;;;;;;9.00;3.90;;;;;;;0.42;84.34;100040.11;1682084;84;21221;-76
2021/03/08 00:37:12;;;;;;;8.43;4.37;;;;;;;0.35;84.71;100045.67;1680821;84;20987;-76
2021/03/08 00:39:38;;;;;;;8.53;4.17;;;;;;;0.34;84.94;100038.83;1687367;83;21320;-76
2021/03/08 00:42:05;;;;;;;11.93;4.50;;;;;;;0.24;85.21;100035.11;1688954;82;21054;-76
2021/03/08 00:44:31;;;;;;;8.98;3.95;;;;;;;0.20;85.49;100033.62;1688458;82;22116;-75
2021/03/08 00:46:57;;;;;;;9.47;4.40;;;;;;;0.11;85.87;100034.17;1690012;82;20931;-75
2021/03/08 00:49:23;;;;;;;10.67;4.60;;;;;;;0.07;85.42;100014.06;1688760;83;21067;-77
2021/03/08 00:51:48;;;;;;;8.87;3.87;;;;;;;0.01;85.73;100031.30;1686533;84;21176;-77
2021/03/08 00:54:14;;;;;;;10.77;4.50;;;;;;;-0.02;85.84;100032.78;1683232;84;21611;-76
2021/03/08 00:56:40;;;;;;;9.83;4.70;;;;;;;-0.04;85.85;100031.57;1682693;84;21542;-76
2021/03/08 00:59:06;;;;;;;10.70;4.73;;;;;;;0.06;85.69;100028.43;1681835;82;21118;-75
2021/03/08 01:01:32;;;;;;;10.90;4.87;;;;;;;0.03;85.78;100033.80;1688425;84;21449;-74
2021/03/08 01:03:57;;;;;;;9.67;4.70;;;;;;;-0.11;86.22;100027.69;1689200;84;21114;-76
2021/03/08 01:06:23;;;;;;;9.33;4.43;;;;;;;-0.11;86.29;100030.28;1687884;84;21038;-76
2021/03/08 01:08:49;;;;;;;9.70;4.80;;;;;;;-0.04;86.44;100016.00;1686036;83;21270;-75
2021/03/08 01:11:15;;;;;;;9.80;4.63;;;;;;;-0.07;86.45;100015.36;1683538;83;21011;-74
2021/03/08 01:13:40;;;;;;;7.70;4.60;;;;;;;-0.08;86.48;100019.72;1691872;82;20963;-74
2021/03/08 01:16:06;;;;;;;12.77;4.90;;;;;;;-0.17;87.00;100020.27;1692180;82;21911;-74
2021/03/08 01:18:32;;;;;;;11.13;4.63;;;;;;;-0.15;86.87;100021.00;1687329;83;22302;-74
2021/03/08 01:20:58;;;;;;;10.20;4.63;;;;;;;-0.20;87.08;100023.87;1686725;82;21277;-73
2021/03/08 01:23:23;;;;;;;10.87;4.83;;;;;;;-0.22;87.14;100018.38;1689222;82;21014;-72
2021/03/08 01:25:49;;;;;;;11.07;5.17;;;;;;;-0.27;87.42;100021.72;1680662;84;21125;-73
2021/03/08 01:28:15;;;;;;;9.67;4.57;;;;;;;-0.30;87.47;100020.60;1678578;84;21027;-73
2021/03/08 01:30:43;;;;;;;12.30;4.70;;;;;;;-0.28;87.34;100021.34;1680288;84;21014;-73
2021/03/08 01:33:09;;;;;;;9.63;5.05;;;;;;;-0.43;87.70;100017.42;1684639;82;22028;-74
2021/03/08 01:35:35;;;;;;;10.93;5.10;;;;;;;-0.48;88.07;100008.23;1680799;84;21668;-73
2021/03/08 01:38:01;;;;;;;12.50;5.17;;;;;;;-0.51;88.14;100006.67;1680293;84;21591;-74
2021/03/08 01:40:27;;;;;;;11.47;5.00;;;;;;;-0.60;88.48;100011.09;1681587;84;20963;-74
2021/03/08 01:42:54;;;;;;;12.10;5.12;;;;;;;-0.59;88.40;100012.73;1680858;84;21241;-74
2021/03/08 01:45:20;;;;;;;12.30;5.37;;;;;;;-0.65;88.69;100015.69;1680598;84;21286;-74
2021/03/08 01:47:47;;;;;;;11.65;5.03;;;;;;;-0.70;88.94;100003.45;1688289;83;21220;-74
2021/03/08 01:50:31;;;;;;;12.75;4.70;;;;;;;-0.70;88.86;100003.45;1684003;83;21174;-74
2021/03/08 01:52:57;;;;;;;11.80;5.10;;;;;;;-0.72;88.99;100010.84;1680612;84;21201;-74
2021/03/08 01:55:23;;;;;;;12.47;5.08;;;;;;;-0.72;89.04;100012.14;1682279;84;21272;-74
2021/03/08 01:57:49;;;;;;;11.17;5.13;;;;;;;-0.69;89.01;100016.33;1681421;84;21157;-74
2021/03/08 02:00:16;;;;;;;12.13;5.60;;;;;;;-0.72;89.25;100014.73;1680025;84;21335;-73
2021/03/08 02:02:42;;;;;;;9.75;4.97;;;;;;;-0.78;89.43;100011.22;1680065;84;21257;-74
2021/03/08 02:05:12;;;;;;;14.03;5.83;;;;;;;-0.77;89.48;100015.47;1681338;84;21213;-73
2021/03/08 02:07:38;;;;;;;13.98;5.72;;;;;;;-0.79;89.68;100012.61;1679932;84;21237;-73
2021/03/08 02:10:14;;;;;;;15.70;5.40;;;;;;;-0.94;90.42;100019.48;1680831;84;21453;-73
2021/03/08 02:13:01;;;;;;;11.55;5.35;;;;;;;-0.93;90.52;100021.16;1681226;84;21254;-73
2021/03/08 02:15:56;;;;;;;14.70;5.95;;;;;;;-0.92;90.50;100024.11;1680360;84;21193;-73
2021/03/08 02:18:40;;;;;;;14.40;6.17;;;;;;;-0.99;90.80;100028.80;1685048;83;21283;-73
2021/03/08 02:21:49;;;;;;;13.22;5.70;;;;;;;-0.98;90.95;100030.92;1660843;83;21199;-74
2021/03/08 02:25:06;;;;;;;12.20;5.70;;;;;;;-0.91;90.72;100034.39;1668718;83;21689;-73
2021/03/08 02:28:03;;;;;;;13.32;5.78;;;;;;;-0.91;90.56;100037.45;1685426;83;21228;-73
2021/03/08 02:30:48;;;;;;;13.80;5.10;;;;;;;-1.04;91.23;100045.08;1689355;83;21240;-73
2021/03/08 02:33:19;;;;;;;15.60;6.20;;;;;;;-1.11;91.45;100044.56;1682307;84;21624;-74
2021/03/08 02:35:45;;;;;;;13.88;5.60;;;;;;;-1.18;91.78;100048.42;1683678;84;21323;-74
2021/03/08 02:38:14;;;;;;;13.53;5.90;;;;;;;-1.14;91.77;100048.61;1690528;84;21657;-74
2021/03/08 02:41:05;;;;;;;13.08;5.78;;;;;;;-1.09;91.44;100049.22;1692058;84;21756;-74
2021/03/08 02:43:43;;;;;;;12.30;5.25;;;;;;;-1.04;91.18;100057.18;1689424;84;21243;-74
2021/03/08 02:46:14;;;;;;;12.80;6.35;;;;;;;-1.04;91.13;100059.77;1687859;83;21606;-72
2021/03/08 02:48:41;;;;;;;11.70;5.62;;;;;;;-1.07;91.25;100057.34;1691121;83;21245;-73
2021/03/08 02:51:07;;;;;;;;;;;;;;;-1.14;91.25;100060.27;1688366;84;21599;-73
2021/03/08 02:53:35;;;;;;;11.73;5.10;;;;;;;-1.09;91.14;100060.87;1658595;84;20278;-74
2021/03/08 02:56:11;;;;;;;13.75;5.95;;;;;;;-1.14;91.24;100062.04;1690352;84;21513;-73
2021/03/08 02:58:37;;;;;;;13.78;5.53;;;;;;;-1.15;91.30;100063.80;1694180;82;21200;-73
2021/03/08 03:01:03;;;;;;;13.63;5.67;;;;;;;-1.19;91.35;100060.99;1690403;82;21016;-74
2021/03/08 03:03:31;;;;;;;13.23;5.80;;;;;;;-1.17;91.36;100070.80;1690855;84;21174;-73
2021/03/08 03:05:58;;;;;;;14.07;5.53;;;;;;;-1.25;91.52;100075.58;1691243;84;21212;-74
2021/03/08 03:08:24;;;;;;;12.13;5.50;;;;;;;-1.17;91.35;100072.09;1691193;84;21232;-73
2021/03/08 03:10:50;;;;;;;10.87;4.93;;;;;;;-1.19;91.35;100073.95;1673501;84;20955;-73
2021/03/08 03:13:15;;;;;;;14.70;5.50;;;;;;;-1.20;91.32;100083.92;1691590;82;20955;-74
2021/03/08 03:15:41;;;;;;;11.93;5.53;;;;;;;-1.24;91.53;100077.25;1680891;84;21275;-73
2021/03/08 03:18:07;;;;;;;13.73;5.73;;;;;;;-1.28;91.78;100089.98;1689374;84;21550;-74
2021/03/08 03:20:36;;;;;;;11.13;4.97;;;;;;;-1.30;91.74;100090.53;1690627;84;20975;-74
2021/03/08 03:23:02;;;;;;;12.63;5.33;;;;;;;-1.25;91.68;100093.70;1684219;84;21244;-73
2021/03/08 03:25:29;;;;;;;10.97;5.40;;;;;;;-1.22;91.44;100088.36;1690194;84;21495;-73
2021/03/08 03:27:55;;;;;;;11.80;5.40;;;;;;;-1.16;91.17;100095.80;1690153;84;21568;-74
2021/03/08 03:30:22;;;;;;;12.10;5.60;;;;;;;-1.11;90.90;100108.52;1690733;84;21740;-74
2021/03/08 03:32:48;;;;;;;13.85;5.58;;;;;;;-1.14;90.74;100093.95;1691685;84;21774;-74
2021/03/08 03:35:20;;;;;;;11.83;4.97;;;;;;;-1.11;90.44;100095.09;1690864;84;21578;-73
2021/03/08 03:37:46;;;;;;;11.45;5.50;;;;;;;-1.09;90.27;100101.48;1644310;84;21181;-74
2021/03/08 03:40:14;;;;;;;11.00;5.15;;;;;;;-1.07;90.21;100103.99;1690600;84;21245;-73
2021/03/08 03:42:43;;;;;;;12.03;5.47;;;;;;;-1.12;90.12;100108.98;1685798;84;21268;-73
2021/03/08 03:45:10;;;;;;;11.45;5.10;;;;;;;-1.10;90.20;100110.20;1684034;84;21200;-73
2021/03/08 03:47:40;;;;;;;14.13;5.95;;;;;;;-0.91;89.80;100105.67;1689865;84;21563;-74
2021/03/08 03:50:10;;;;;;;15.30;6.60;;;;;;;-0.96;88.96;100106.86;1686219;82;21248;-74
2021/03/08 03:52:36;;;;;;;12.80;5.92;;;;;;;-0.77;88.65;100117.88;1685384;83;21256;-74
2021/03/08 03:55:04;;;;;;;13.07;5.40;;;;;;;-0.89;88.27;100115.13;1688173;84;20955;-74
2021/03/08 03:57:50;;;;;;;14.63;6.08;;;;;;;-0.85;87.94;100117.47;1683218;84;21518;-74
2021/03/08 04:00:25;;;;;;;13.93;6.35;;;;;;;-1.09;88.26;100133.44;1687660;84;21221;-75
2021/03/08 04:03:11;;;;;;;11.90;5.90;;;;;;;-1.15;88.37;100121.25;1686225;84;21752;-74
2021/03/08 04:05:39;;;;;;;12.65;6.10;;;;;;;-1.05;88.27;100117.73;1687693;83;21261;-74
2021/03/08 04:08:05;;;;;;;13.75;5.80;;;;;;;-1.06;88.06;100123.81;1695748;82;21259;-74
2021/03/08 04:10:31;;;;;;;15.73;6.37;;;;;;;-1.06;88.11;100125.94;1691212;82;21434;-74
2021/03/08 04:13:05;;;;;;;14.33;5.83;;;;;;;-1.18;88.41;100127.89;1688890;82;20951;-74
2021/03/08 04:15:32;;;;;;;12.53;5.60;;;;;;;-1.18;88.19;100127.89;1679386;84;21229;-74
2021/03/08 04:17:59;;;;;;;15.15;6.30;;;;;;;-1.12;88.10;100129.72;1683765;84;22254;-74
2021/03/08 04:20:26;;;;;;;13.93;6.03;;;;;;;-1.15;88.16;100122.55;1690663;84;21256;-74
2021/03/08 04:22:52;;;;;;;11.80;5.78;;;;;;;-1.18;88.13;100128.75;1680206;84;21745;-74
2021/03/08 04:25:18;;;;;;;11.47;5.60;;;;;;;-1.15;87.74;100132.47;1689449;82;20967;-75
2021/03/08 04:27:50;;;;;;;10.38;5.60;;;;;;;-1.16;87.69;100135.97;1689170;84;21224;-74
2021/03/08 04:30:18;;;;;;;11.83;5.22;;;;;;;-1.17;87.48;100132.16;1688357;84;21647;-74
2021/03/08 04:32:44;;;;;;;;;;;;;;;-1.21;87.53;100141.87;1691528;84;21654;-74
2021/03/08 04:35:14;;;;;;;13.62;6.00;;;;;;;-1.23;87.35;100135.91;1685375;83;20568;-74
2021/03/08 04:37:39;;;;;;;15.58;6.00;;;;;;;-1.32;87.57;100141.13;1686946;82;21470;-74
2021/03/08 04:40:12;;;;;;;11.53;5.70;;;;;;;-1.25;87.54;100140.34;1685228;82;21243;-74
2021/03/08 04:42:37;;;;;;;11.60;5.42;;;;;;;-1.22;87.36;100137.59;1673282;84;21197;-74
2021/03/08 04:45:05;;;;;;;16.83;6.37;;;;;;;-1.25;87.35;100142.11;1684871;84;20963;-74
2021/03/08 04:47:30;;;;;;;11.20;5.87;;;;;;;-1.31;87.50;100147.14;1679211;84;25756;-74
2021/03/08 04:49:56;;;;;;;14.17;6.10;;;;;;;-1.31;87.42;100140.66;1684426;83;21645;-74
2021/03/08 04:52:22;;;;;;;14.67;5.93;;;;;;;-1.31;87.55;100156.20;1684949;84;21040;-75
2021/03/08 04:54:47;;;;;;;12.73;6.10;;;;;;;-1.41;87.91;100150.68;1681102;84;21443;-74
2021/03/08 04:57:17;;;;;;;10.93;5.47;;;;;;;-1.40;88.14;100152.33;1678716;84;20939;-74
2021/03/08 04:59:43;;;;;;;15.70;6.05;;;;;;;-1.50;88.54;100159.75;1684829;82;21181;-74
2021/03/08 05:02:09;;;;;;;13.07;6.33;;;;;;;-1.48;88.66;100157.91;1688613;84;21582;-74
2021/03/08 05:04:38;;;;;;;14.78;6.75;;;;;;;-1.45;88.50;100159.05;1681823;84;21237;-73
2021/03/08 05:07:08;;;;;;;17.48;7.05;;;;;;;-1.58;88.63;100153.31;1685929;84;22330;-73
2021/03/08 05:09:35;;;;;;;15.70;7.03;;;;;;;-1.48;88.68;100162.26;1682553;84;21181;-74
2021/03/08 05:12:05;;;;;;;12.82;6.20;;;;;;;-1.53;88.61;100159.08;1684591;82;21217;-75
2021/03/08 05:14:31;;;;;;;12.88;6.20;;;;;;;-1.51;88.77;100163.27;1688411;84;21241;-72
2021/03/08 05:16:56;;;;;;;13.53;6.43;;;;;;;-1.51;88.58;100164.56;1683790;82;20967;-74
2021/03/08 05:19:23;;;;;;;18.33;6.97;;;;;;;-1.50;88.54;100159.75;1686868;82;21171;-73
2021/03/08 05:21:49;;;;;;;15.60;6.83;;;;;;;-1.47;88.36;100166.06;1684820;84;21255;-74
2021/03/08 05:24:15;;;;;;;15.28;7.33;;;;;;;-1.47;88.29;100160.06;1686518;84;21241;-74
2021/03/08 05:26:41;;;;;;;19.13;7.83;;;;;;;-1.45;88.38;100171.17;1680444;84;21168;-74
2021/03/08 05:29:07;;;;;;;16.83;8.17;;;;;;;-1.52;88.39;100171.12;1682922;84;21029;-74
2021/03/08 05:31:37;;;;;;;20.65;7.83;;;;;;;-1.51;88.43;100172.34;1681568;84;22408;-73
2021/03/08 05:34:04;;;;;;;21.17;7.90;;;;;;;-1.58;88.68;100181.32;1689555;82;21200;-74
2021/03/08 05:36:36;;;;;;;17.62;7.65;;;;;;;-1.65;89.05;100181.24;1692189;82;21279;-75
2021/03/08 05:39:03;;;;;;;20.88;8.65;;;;;;;-1.66;89.13;100180.41;1682942;84;21256;-74
2021/03/08 05:41:47;;;;;;;19.73;7.67;;;;;;;-1.75;89.06;100170.98;1681288;84;21691;-75
2021/03/08 05:44:12;;;;;;;18.52;6.53;;;;;;;-1.61;88.89;100185.36;1685275;84;21339;-75
2021/03/08 05:47:14;;;;;;;15.80;7.17;;;;;;;-1.69;89.13;100179.74;1683750;84;20928;-74
2021/03/08 05:50:09;;;;;;;16.10;7.15;;;;;;;-1.66;89.05;100187.35;1686845;84;21225;-75
2021/03/08 05:53:27;;;;;;;16.80;7.00;;;;;;;-1.69;89.03;100189.63;1683693;84;21246;-74
2021/03/08 05:56:44;;;;;;;18.30;7.70;;;;;;;-1.70;89.27;100196.18;1686944;82;21228;-75
2021/03/08 05:59:41;;;;;;;14.98;6.85;;;;;;;-1.76;89.34;100195.19;1685096;83;22403;-74
2021/03/08 06:02:50;;;;;;;18.65;6.95;;;;;;;-1.78;89.44;100193.97;1688858;84;21174;-74
2021/03/08 06:05:47;;;;;;;15.75;6.97;;;;;;;-1.76;89.08;100192.59;1682808;82;21201;-74
2021/03/08 06:08:41;;;;;;;13.80;6.60;;;;;;;-1.77;89.12;100202.13;1686261;82;21205;-74
2021/03/08 06:11:09;;;;;;;18.17;6.95;;;;;;;-1.73;89.13;100204.09;1682555;83;21205;-76
2021/03/08 06:13:56;;;;;;;16.07;7.40;;;;;;;-1.65;88.84;100212.31;1692751;82;21801;-77
2021/03/08 06:16:32;;;;;;;20.50;6.90;;;;;;;-1.54;88.56;100210.05;1682664;84;22268;-75
2021/03/08 06:18:59;;;;;;;17.02;6.70;;;;;;;-1.51;88.05;100220.25;1688804;84;21233;-75
2021/03/08 06:21:25;;;;;;;15.70;6.85;;;;;;;-1.47;88.06;100220.92;1688908;84;22020;-75
2021/03/08 06:23:51;;;;;;;14.97;6.27;;;;;;;-1.36;87.35;100218.61;1684869;84;21590;-76
2021/03/08 06:26:16;;;;;;;14.27;6.10;;;;;;;-1.35;87.01;100231.09;1690078;84;21953;-75
2021/03/08 06:28:42;;;;;;;16.63;6.87;;;;;;;-1.28;86.62;100225.52;1683884;84;20985;-74
2021/03/08 06:31:09;;;;;;;16.40;6.60;;;;;;;-1.25;86.50;100230.19;1686954;82;20955;-76
2021/03/08 06:33:36;;;;;;;15.85;6.40;;;;;;;-1.16;86.41;100228.42;1684315;84;21228;-75
2021/03/08 06:36:02;;;;;;;16.30;6.10;;;;;;;-1.10;85.63;100235.41;1691854;82;21776;-76
2021/03/08 06:38:30;;;;;;;20.30;5.92;;;;;;;-1.17;84.93;100257.36;1690205;84;21623;-74
2021/03/08 06:40:56;;;;;;;16.80;6.12;;;;;;;-1.04;84.92;100234.70;1692496;84;21229;-75
2021/03/08 06:43:22;;;;;;;14.17;6.00;;;;;;;-1.00;84.24;100250.48;1687792;84;21530;-73
2021/03/08 06:45:48;;;;;;;15.83;5.37;;;;;;;-0.96;83.54;100257.20;1688773;83;21585;-75
2021/03/08 06:48:13;;;;;;;14.97;5.80;;;;;;;-1.02;83.59;100263.52;1685572;83;21423;-76
2021/03/08 06:50:39;;;;;;;13.83;5.10;;;;;;;-0.99;83.50;100258.66;1687247;84;22419;-75
2021/03/08 06:53:05;;;;;;;13.47;5.20;;;;;;;-0.88;83.43;100258.92;1684004;83;20947;-77
2021/03/08 06:55:31;;;;;;;12.03;5.20;;;;;;;-0.75;82.98;100274.20;1695740;83;20937;-76
2021/03/08 06:58:18;;;;;;;16.70;5.60;;;;;;;-0.73;82.43;100264.60;1694159;82;21061;-74
2021/03/08 07:00:44;;;;;;;13.00;5.30;;;;;;;-0.64;82.36;100271.51;1691508;82;21185;-73
2021/03/08 07:03:32;;;;;;;14.23;5.30;;;;;;;-0.57;81.99;100273.69;1693005;82;22273;-74
2021/03/08 07:06:15;;;;;;;11.60;4.60;;;;;;;-0.53;81.67;100274.36;1689941;83;21208;-71
2021/03/08 07:08:40;;;;;;;9.53;4.22;;;;;;;-0.46;81.58;100273.12;1688220;83;21146;-73
2021/03/08 07:11:24;;;;;;;11.73;4.70;;;;;;;-0.49;80.57;100282.36;1692516;83;20899;-72
2021/03/08 07:13:50;;;;;;;12.33;4.47;;;;;;;-0.48;80.61;100285.34;1691383;83;21233;-73
2021/03/08 07:16:16;;;;;;;16.47;4.70;;;;;;;-0.53;80.76;100289.92;1685591;84;21360;-71
2021/03/08 07:18:42;;;;;;;11.57;4.55;;;;;;;-0.53;80.66;100296.41;1694051;83;21248;-72
2021/03/08 07:21:21;;;;;;;13.07;4.43;;;;;;;-0.45;80.56;100286.92;1686604;84;20923;-73
2021/03/08 07:23:49;;;;;;;10.28;4.42;;;;;;;-0.41;79.89;100295.75;1688579;82;21403;-72
2021/03/08 07:26:17;;;;;;;14.03;5.12;;;;;;;-0.22;79.83;100283.08;1692674;84;21220;-72
2021/03/08 07:28:43;;;;;;;11.35;4.30;;;;;;;-0.22;79.43;100284.37;1688781;84;21325;-72
2021/03/08 07:31:10;;;;;;;11.90;4.27;;;;;;;-0.22;78.57;100284.37;1689155;82;20920;-72
2021/03/08 07:33:36;;;;;;;12.10;4.60;;;;;;;-0.27;77.87;100285.92;1694474;84;21240;-72
2021/03/08 07:36:05;;;;;;;12.43;4.23;;;;;;;-0.19;77.99;100293.30;1693963;83;21042;-72
2021/03/08 07:38:35;;;;;;;17.20;4.67;;;;;;;-0.05;78.24;100286.05;1677913;83;21213;-72
2021/03/08 07:41:18;;;;;;;9.15;4.30;;;;;;;-0.02;77.78;100299.72;1687792;83;21271;-72
2021/03/08 07:43:48;;;;;;;14.98;5.17;;;;;;;0.04;77.64;100286.02;1679842;84;21241;-72
2021/03/08 07:46:35;;;;;;;13.18;4.90;;;;;;;0.15;76.96;100298.75;1690564;83;21260;-72
2021/03/08 07:49:05;;;;;;;;;;;;;;;0.13;76.09;100285.50;1690509;83;21236;-71
2021/03/08 07:51:31;;;;;;;15.32;4.92;;;;;;;0.21;76.18;100279.41;1690310;84;20619;-70
2021/03/08 07:54:07;;;;;;;11.38;4.92;;;;;;;0.28;76.13;100285.94;1684182;83;22505;-71
2021/03/08 07:56:33;;;;;;;13.20;4.53;;;;;;;0.35;75.88;100288.55;1686300;84;21241;-72
2021/03/08 07:58:59;;;;;;;11.57;4.83;;;;;;;0.33;75.24;100294.30;1685377;84;21245;-71
2021/03/08 08:01:25;;;;;;;11.80;4.77;;;;;;;0.41;74.93;100285.24;1688654;84;21047;-72
2021/03/08 08:03:51;;;;;;;13.00;4.40;;;;;;;0.55;74.52;100294.37;1687441;84;20947;-71
2021/03/08 08:06:24;;;;;;;11.68;4.35;;;;;;;0.65;73.74;100287.73;1685569;83;21244;-74
2021/03/08 08:08:53;;;;;;;9.60;4.20;;;;;;;0.66;73.82;100313.25;1680363;84;21213;-74
2021/03/08 08:11:20;;;;;;;11.20;4.28;;;;;;;0.59;74.12;100301.52;1683920;83;21229;-72
2021/03/08 08:13:50;;;;;;;10.38;4.60;;;;;;;0.81;74.02;100293.30;1695337;84;21653;-74
2021/03/08 08:16:16;;;;;;;12.90;4.85;;;;;;;0.78;73.96;100299.98;1684427;84;21213;-74
2021/03/08 08:18:43;;;;;;;9.90;4.33;;;;;;;0.87;73.98;100303.34;1678622;84;22027;-74
2021/03/08 08:21:19;;;;;;;;;;;;;;;0.87;73.00;100300.75;1681758;82;21228;-74
2021/03/08 08:23:56;;;;;;;11.10;4.28;;;;;;;1.00;73.78;100304.30;1681610;84;20319;-74
2021/03/08 08:26:21;;;;;;;10.25;4.50;;;;;;;1.04;73.82;100299.30;1688536;83;21538;-75
2021/03/08 08:28:47;;;;;;;8.67;3.77;;;;;;;1.08;73.16;100299.47;1681761;84;21024;-74
2021/03/08 08:31:13;;;;;;;13.58;3.80;;;;;;;1.19;71.78;100311.02;1688819;82;21667;-76
2021/03/08 08:33:38;;;;;;;10.90;3.83;;;;;;;1.23;71.35;100312.52;1684721;83;21663;-75
2021/03/08 08:36:16;;;;;;;8.93;4.10;;;;;;;1.23;71.30;100316.41;1681393;83;21702;-73
2021/03/08 08:39:04;;;;;;;9.28;4.15;;;;;;;1.19;71.33;100331.82;1690079;84;21252;-73
2021/03/08 08:41:31;;;;;;;;;;;;;;;1.20;71.19;100321.80;1694599;84;21281;-72
2021/03/08 08:44:15;;;;;;;11.15;3.95;;;;;;;1.17;70.99;100326.71;1686361;84;23686;-74
2021/03/08 08:46:45;;;;;;;10.48;4.03;;;;;;;1.25;72.25;100327.55;1691688;84;21229;-74
2021/03/08 08:49:19;;;;;;;12.88;4.30;;;;;;;1.31;71.73;100330.27;1691614;82;21179;-75
2021/03/08 08:51:58;;;;;;;12.07;3.77;;;;;;;1.30;71.08;100329.41;1685481;84;21412;-75
2021/03/08 08:54:32;;;;;;;9.63;3.60;;;;;;;1.34;70.20;100319.20;1688636;84;21212;-76
2021/03/08 08:57:10;;;;;;;9.80;4.10;;;;;;;1.43;70.13;100319.94;1696205;84;21753;-74
2021/03/08 08:59:37;;;;;;;8.85;3.87;;;;;;;1.43;70.26;100325.63;1691872;84;21216;-71
2021/03/08 09:02:21;;;;;;;7.00;3.17;;;;;;;1.57;70.32;100333.42;1690413;84;21217;-75
2021/03/08 09:04:45;;;;;;;12.63;3.62;;;;;;;1.48;68.39;100322.27;1688812;84;21604;-74
2021/03/08 09:07:27;;;;;;;9.57;3.07;;;;;;;1.41;66.50;100337.42;1693869;83;23305;-74
2021/03/08 09:09:58;;;;;;;10.23;2.98;;;;;;;1.55;67.10;100329.22;1695016;84;21631;-73
2021/03/08 09:12:37;;;;;;;8.65;3.22;;;;;;;1.54;67.47;100326.23;1695519;83;21216;-75
2021/03/08 09:15:10;;;;;;;8.45;2.77;;;;;;;1.54;67.02;100331.45;1691184;84;21244;-76
2021/03/08 09:17:48;;;;;;;8.30;2.98;;;;;;;1.61;65.65;100322.34;1684614;84;21235;-76
2021/03/08 09:20:21;;;;;;;7.17;2.77;;;;;;;1.68;65.29;100318.44;1684251;83;21439;-73
2021/03/08 09:22:50;;;;;;;6.87;2.67;;;;;;;1.89;65.33;100338.86;1686131;84;22090;-73
2021/03/08 09:25:26;;;;;;;6.25;2.50;;;;;;;2.06;64.43;100325.61;1694573;84;21177;-74
2021/03/08 09:28:01;;;;;;;7.40;2.60;;;;;;;2.07;63.28;100330.37;1693565;84;21202;-74
2021/03/08 09:30:33;;;;;;;6.25;2.35;;;;;;;2.11;62.43;100326.17;1690128;82;21550;-73
2021/03/08 09:33:06;;;;;;;6.85;2.75;;;;;;;2.18;62.61;100321.87;1685560;84;21212;-75
2021/03/08 09:35:42;;;;;;;6.83;2.30;;;;;;;2.21;62.56;100362.06;1686463;83;21382;-73
2021/03/08 09:38:17;;;;;;;5.75;2.22;;;;;;;2.16;60.27;100354.54;1690187;83;21224;-71
2021/03/08 09:40:47;;;;;;;6.22;2.00;;;;;;;2.14;59.36;100339.45;1684397;83;21745;-73
2021/03/08 09:43:32;;;;;;;5.62;2.10;;;;;;;2.07;58.49;100342.92;1689611;84;21208;-74
2021/03/08 09:46:10;;;;;;;8.50;2.10;;;;;;;2.08;57.60;100348.95;1658490;83;38053;-74
2021/03/08 09:48:37;;;;;;;;;;;;;;;2.21;58.46;100343.83;1696029;82;21249;-75
2021/03/08 09:51:13;;;;;;;9.13;2.08;;;;;;;2.32;58.29;100339.58;1691537;84;20302;-74
2021/03/08 09:53:46;;;;;;;4.53;2.00;;;;;;;2.24;57.83;100365.30;1692896;84;21192;-73
2021/03/08 09:56:14;;;;;;;5.10;2.00;;;;;;;2.18;58.56;100347.92;1689663;84;21237;-74
2021/03/08 09:58:40;;;;;;;5.87;2.17;;;;;;;2.15;58.78;100354.98;1691196;84;21149;-72
2021/03/08 10:01:14;;;;;;;6.53;2.25;;;;;;;2.26;59.16;100363.42;1692264;84;21212;-74
2021/03/08 10:03:40;;;;;;;13.13;2.60;;;;;;;2.14;59.26;100353.33;1687265;82;21245;-73
2021/03/08 10:06:06;;;;;;;8.50;2.50;;;;;;;2.26;59.51;100353.48;1693557;83;20959;-72
2021/03/08 10:08:32;;;;;;;6.03;2.30;;;;;;;2.30;59.20;100351.03;1689689;84;25865;-73
2021/03/08 10:10:58;;;;;;;4.53;2.20;;;;;;;2.32;59.00;100351.78;1692364;83;25249;-73
2021/03/08 10:13:24;;;;;;;8.93;2.58;;;;;;;2.40;58.02;100356.50;1691210;84;21702;-77
2021/03/08 10:15:57;;;;;;;6.30;2.30;;;;;;;2.51;58.42;100367.89;1688904;84;21647;-76
2021/03/08 10:18:27;;;;;;;7.62;2.20;;;;;;;2.43;58.51;100372.77;1690478;83;21189;-76
2021/03/08 10:20:59;;;;;;;5.10;2.10;;;;;;;2.60;57.66;100372.99;1691536;83;21228;-76
2021/03/08 10:23:32;;;;;;;6.05;2.40;;;;;;;2.50;55.72;100368.84;1692741;83;21259;-78
2021/03/08 10:26:13;;;;;;;8.50;2.35;;;;;;;2.66;56.46;100382.20;1690668;84;22371;-76
2021/03/08 10:28:47;;;;;;;6.28;2.35;;;;;;;2.62;56.99;100392.45;1690318;83;21212;-76
2021/03/08 10:31:28;;;;;;;9.13;2.98;;;;;;;2.47;57.91;100383.38;1692842;83;21230;-76
2021/03/08 10:34:09;;;;;;;10.40;3.33;;;;;;;2.37;58.55;100383.59;1692797;83;21225;-76
2021/03/08 10:36:38;;;;;;;7.37;2.80;;;;;;;2.54;59.06;100373.86;1696730;83;21300;-79
2021/03/08 10:39:13;;;;;;;8.28;2.42;;;;;;;2.62;57.66;100372.89;1691497;82;21436;-77
2021/03/08 10:41:42;;;;;;;4.97;2.42;;;;;;;2.66;56.30;100398.67;1675849;83;21235;-75
2021/03/08 10:44:07;;;;;;;4.85;2.50;;;;;;;2.73;56.99;100379.55;1691036;84;21438;-75
2021/03/08 10:46:42;;;;;;;6.73;2.50;;;;;;;2.82;56.12;100382.85;1689550;84;26190;-74
2021/03/08 10:49:09;;;;;;;6.90;2.20;;;;;;;2.75;55.10;100376.39;1691038;84;21185;-74
2021/03/08 10:51:37;;;;;;;7.15;2.70;;;;;;;2.78;53.90;100393.14;1675757;84;21267;-74
2021/03/08 10:54:12;;;;;;;6.10;2.20;;;;;;;2.57;54.03;100393.22;1697871;84;21577;-73
2021/03/08 10:56:41;;;;;;;6.78;3.10;;;;;;;2.65;55.08;100391.77;1691252;84;21201;-73
2021/03/08 10:59:30;;;;;;;8.53;2.60;;;;;;;2.62;56.31;100387.23;1669321;84;21671;-72
2021/03/08 11:02:07;;;;;;;11.83;2.90;;;;;;;2.63;55.91;100386.31;1694166;84;21216;-73
2021/03/08 11:04:33;;;;;;;8.38;3.08;;;;;;;2.99;55.98;100382.22;1689584;84;21398;-74
2021/03/08 11:06:59;;;;;;;6.10;2.50;;;;;;;2.98;55.84;100383.15;1688625;84;22563;-74
2021/03/08 11:09:31;;;;;;;5.53;2.50;;;;;;;2.97;55.21;100373.67;1690365;84;21081;-72
2021/03/08 11:11:57;;;;;;;6.05;2.40;;;;;;;2.85;55.17;100386.56;1692793;83;21384;-73
2021/03/08 11:14:22;;;;;;;8.60;2.80;;;;;;;2.78;55.52;100384.02;1690458;84;21213;-74
2021/03/08 11:16:51;;;;;;;5.07;2.10;;;;;;;2.62;54.89;100380.23;1690250;84;21113;-73
2021/03/08 11:19:22;;;;;;;5.15;2.25;;;;;;;2.64;55.17;100386.21;1693083;84;21209;-71
2021/03/08 11:22:08;;;;;;;6.62;2.52;;;;;;;2.65;55.23;100381.82;1690518;83;21161;-71
2021/03/08 11:24:44;;;;;;;6.10;2.05;;;;;;;2.65;55.13;100396.16;1635503;84;21590;-73
2021/03/08 11:27:27;;;;;;;4.75;1.98;;;;;;;2.56;54.80;100391.06;1690361;83;21699;-75
2021/03/08 11:30:07;;;;;;;11.55;2.33;;;;;;;2.58;55.36;100389.66;1688579;84;21941;-75
2021/03/08 11:32:34;;;;;;;10.95;2.70;;;;;;;2.65;55.72;100387.86;1692540;82;21223;-76
2021/03/08 11:35:00;;;;;;;6.12;1.92;;;;;;;2.69;56.14;100398.95;1692690;82;21200;-75
2021/03/08 11:37:27;;;;;;;5.03;2.20;;;;;;;2.72;54.78;100390.93;1692075;82;25928;-75
2021/03/08 11:39:55;;;;;;;;;;;;;;;2.76;54.49;100393.69;1690853;84;21233;-74
2021/03/08 11:42:24;;;;;;;13.10;2.22;;;;;;;2.82;54.39;100403.72;1689412;82;21250;-75